Terminal Aerodrome Forecast
Issued by NWS

Home | Current Version | Previous Version | Graphics & Text | Print | Product List | Glossary On
Versions: 1 2 3 4 5 6 7 8 9 10 11 12 13 14 15 16 17 18 19 20 21 22 23 24 25 26
000
FTUS43 KABR 180500
TAFPIR
TAF
KPIR 180538Z 1806/1906 29014KT P6SM OVC025
     FM181100 21004KT P6SM BKN200
     FM181800 20010KT P6SM BKN080
     FM190000 32024G34KT P6SM OVC030=

USA.gov is the U.S. government's official web portal to all federal, state and local government web resources and services.